sensor_id;sensor_type;location;lat;lon;timestamp;pressure;altitude;pressure_sealevel;temperature;humidity
32330;BME280;18807;52.434;13.238;2023-08-07T00:04:21;74837.13;;;-142.05;100.00
32330;BME280;18807;52.434;13.238;2023-08-07T00:11:58;74828.97;;;-142.05;100.00
32330;BME280;18807;52.434;13.238;2023-08-07T00:19:35;74835.09;;;-142.05;100.00
32330;BME280;18807;52.434;13.238;2023-08-07T00:27:10;74835.09;;;-142.05;100.00
32330;BME280;18807;52.434;13.238;2023-08-07T00:34:47;74837.13;;;-142.05;100.00
32330;BME280;18807;52.434;13.238;2023-08-07T00:42:22;74828.97;;;-142.05;100.00
32330;BME280;18807;52.434;13.238;2023-08-07T00:49:59;74824.88;;;-142.05;100.00
32330;BME280;18807;52.434;13.238;2023-08-07T00:57:34;74833.03;;;-142.05;100.00
32330;BME280;18807;52.434;13.238;2023-08-07T01:05:10;74837.13;;;-142.05;100.00
32330;BME280;18807;52.434;13.238;2023-08-07T01:12:48;74843.25;;;-142.05;100.00
32330;BME280;18807;52.434;13.238;2023-08-07T01:20:27;74837.13;;;-142.05;100.00
32330;BME280;18807;52.434;13.238;2023-08-07T01:28:08;74824.88;;;-142.05;100.00
32330;BME280;18807;52.434;13.238;2023-08-07T01:35:49;74822.84;;;-142.05;100.00
32330;BME280;18807;52.434;13.238;2023-08-07T01:43:27;74822.84;;;-142.05;100.00
32330;BME280;18807;52.434;13.238;2023-08-07T01:51:01;74816.72;;;-142.05;100.00
32330;BME280;18807;52.434;13.238;2023-08-07T01:58:37;74820.81;;;-142.05;100.00
32330;BME280;18807;52.434;13.238;2023-08-07T02:06:12;74820.81;;;-142.05;100.00
32330;BME280;18807;52.434;13.238;2023-08-07T02:13:48;74828.97;;;-142.05;100.00
32330;BME280;18807;52.434;13.238;2023-08-07T02:21:22;74837.13;;;-142.05;100.00
32330;BME280;18807;52.434;13.238;2023-08-07T02:28:58;74833.03;;;-142.05;100.00
32330;BME280;18807;52.434;13.238;2023-08-07T02:36:33;74835.09;;;-142.05;100.00
32330;BME280;18807;52.434;13.238;2023-08-07T02:44:09;74841.22;;;-142.05;100.00
32330;BME280;18807;52.434;13.238;2023-08-07T02:51:43;74849.38;;;-142.05;100.00
32330;BME280;18807;52.434;13.238;2023-08-07T02:59:19;74845.28;;;-142.05;100.00
32330;BME280;18807;52.434;13.238;2023-08-07T03:06:53;74839.16;;;-142.05;100.00
32330;BME280;18807;52.434;13.238;2023-08-07T03:14:30;74835.09;;;-142.05;100.00
32330;BME280;18807;52.434;13.238;2023-08-07T03:22:05;74841.22;;;-142.05;100.00
32330;BME280;18807;52.434;13.238;2023-08-07T03:29:41;74837.13;;;-142.05;100.00
32330;BME280;18807;52.434;13.238;2023-08-07T03:37:19;74843.25;;;-142.05;100.00
32330;BME280;18807;52.434;13.238;2023-08-07T03:44:54;74847.31;;;-142.05;100.00
32330;BME280;18807;52.434;13.238;2023-08-07T03:52:30;74851.41;;;-142.05;100.00
32330;BME280;18807;52.434;13.238;2023-08-07T04:00:09;74859.56;;;-142.05;100.00
32330;BME280;18807;52.434;13.238;2023-08-07T04:07:43;74867.72;;;-142.05;100.00
32330;BME280;18807;52.434;13.238;2023-08-07T04:15:19;74873.84;;;-142.05;100.00
32330;BME280;18807;52.434;13.238;2023-08-07T04:22:54;74875.88;;;-142.05;100.00
32330;BME280;18807;52.434;13.238;2023-08-07T04:30:29;74871.81;;;-142.05;100.00
32330;BME280;18807;52.434;13.238;2023-08-07T04:38:04;74879.97;;;-142.05;100.00
32330;BME280;18807;52.434;13.238;2023-08-07T04:45:42;74886.09;;;-142.05;100.00
32330;BME280;18807;52.434;13.238;2023-08-07T04:53:18;74894.25;;;-142.05;100.00
32330;BME280;18807;52.434;13.238;2023-08-07T05:00:56;74886.09;;;-142.05;100.00
32330;BME280;18807;52.434;13.238;2023-08-07T05:08:33;74902.41;;;-142.05;100.00
32330;BME280;18807;52.434;13.238;2023-08-07T05:16:11;74908.53;;;-142.05;100.00
32330;BME280;18807;52.434;13.238;2023-08-07T05:23:47;74914.66;;;-142.05;100.00
32330;BME280;18807;52.434;13.238;2023-08-07T05:31:27;74910.56;;;-142.05;100.00
32330;BME280;18807;52.434;13.238;2023-08-07T05:39:02;74902.41;;;-142.05;100.00
32330;BME280;18807;52.434;13.238;2023-08-07T05:46:38;74910.56;;;-142.05;100.00
32330;BME280;18807;52.434;13.238;2023-08-07T05:54:13;74908.53;;;-142.05;100.00
32330;BME280;18807;52.434;13.238;2023-08-07T06:01:49;74892.22;;;-142.05;100.00
32330;BME280;18807;52.434;13.238;2023-08-07T06:09:25;74875.88;;;-142.05;100.00
32330;BME280;18807;52.434;13.238;2023-08-07T06:17:02;74865.69;;;-142.05;100.00
32330;BME280;18807;52.434;13.238;2023-08-07T06:24:36;74863.66;;;-142.05;100.00
32330;BME280;18807;52.434;13.238;2023-08-07T06:32:14;74851.41;;;-142.05;100.00
32330;BME280;18807;52.434;13.238;2023-08-07T06:39:52;74849.38;;;-142.05;100.00
32330;BME280;18807;52.434;13.238;2023-08-07T06:47:31;74822.84;;;-142.05;100.00
32330;BME280;18807;52.434;13.238;2023-08-07T06:55:06;74802.44;;;-142.05;100.00
32330;BME280;18807;52.434;13.238;2023-08-07T07:02:42;74784.09;;;-142.05;100.00
32330;BME280;18807;52.434;13.238;2023-08-07T07:10:18;74773.88;;;-142.05;100.00
32330;BME280;18807;52.434;13.238;2023-08-07T07:17:55;74769.81;;;-142.05;100.00
32330;BME280;18807;52.434;13.238;2023-08-07T07:25:32;74751.44;;;-142.05;100.00
32330;BME280;18807;52.434;13.238;2023-08-07T07:33:07;74755.53;;;-142.05;99.74
32330;BME280;18807;52.434;13.238;2023-08-07T07:40:43;74739.19;;;-142.05;94.83
32330;BME280;18807;52.434;13.238;2023-08-07T07:48:21;74735.13;;;-142.05;92.10
32330;BME280;18807;52.434;13.238;2023-08-07T07:55:57;74731.03;;;-142.05;90.76
32330;BME280;18807;52.434;13.238;2023-08-07T08:03:33;74714.72;;;-142.05;94.22
32330;BME280;18807;52.434;13.238;2023-08-07T08:11:08;74700.44;;;-142.05;97.96
32330;BME280;18807;52.434;13.238;2023-08-07T08:18:44;74712.69;;;-142.05;96.96
32330;BME280;18807;52.434;13.238;2023-08-07T08:26:19;74700.44;;;-142.05;100.00
32330;BME280;18807;52.434;13.238;2023-08-07T08:33:56;74694.31;;;-142.05;94.44
32330;BME280;18807;52.434;13.238;2023-08-07T08:41:32;74720.84;;;-142.05;96.27
32330;BME280;18807;52.434;13.238;2023-08-07T08:49:08;74692.28;;;-142.05;98.93
32330;BME280;18807;52.434;13.238;2023-08-07T08:56:46;74653.50;;;-142.05;92.92
32330;BME280;18807;52.434;13.238;2023-08-07T09:04:22;74661.69;;;-142.05;93.42
32330;BME280;18807;52.434;13.238;2023-08-07T09:11:58;74712.69;;;-142.05;100.00
32330;BME280;18807;52.434;13.238;2023-08-07T09:19:36;74726.97;;;-142.05;100.00
32330;BME280;18807;52.434;13.238;2023-08-07T09:27:11;74718.78;;;-142.05;100.00
32330;BME280;18807;52.434;13.238;2023-08-07T09:34:49;74696.34;;;-142.05;100.00
32330;BME280;18807;52.434;13.238;2023-08-07T09:42:24;74698.41;;;-142.05;95.40
32330;BME280;18807;52.434;13.238;2023-08-07T09:49:59;74680.03;;;-142.05;96.45
32330;BME280;18807;52.434;13.238;2023-08-07T09:57:35;74675.94;;;-142.05;93.19
32330;BME280;18807;52.434;13.238;2023-08-07T10:05:11;74661.69;;;-142.05;81.54
32330;BME280;18807;52.434;13.238;2023-08-07T10:12:47;74665.75;;;-142.05;75.53
32330;BME280;18807;52.434;13.238;2023-08-07T10:20:27;74647.41;;;-142.05;75.91
32330;BME280;18807;52.434;13.238;2023-08-07T10:28:04;74622.91;;;-142.05;75.75
32330;BME280;18807;52.434;13.238;2023-08-07T10:35:47;74618.84;;;-142.05;71.57
32330;BME280;18807;52.434;13.238;2023-08-07T10:43:24;74610.66;;;-142.05;70.51
32330;BME280;18807;52.434;13.238;2023-08-07T10:51:04;74602.50;;;-142.05;70.28
32330;BME280;18807;52.434;13.238;2023-08-07T10:58:41;74608.63;;;-142.05;71.65
32330;BME280;18807;52.434;13.238;2023-08-07T11:06:17;74622.91;;;-142.05;71.40
32330;BME280;18807;52.434;13.238;2023-08-07T11:13:53;74602.50;;;-142.05;75.62
32330;BME280;18807;52.434;13.238;2023-08-07T11:21:30;74586.19;;;-142.05;72.02
32330;BME280;18807;52.434;13.238;2023-08-07T11:29:08;74592.31;;;-142.05;69.49
32330;BME280;18807;52.434;13.238;2023-08-07T11:36:45;74647.41;;;-142.05;84.44
32330;BME280;18807;52.434;13.238;2023-08-07T11:44:22;74620.88;;;-142.05;85.81
32330;BME280;18807;52.434;13.238;2023-08-07T11:52:01;74553.56;;;-142.05;80.38
32330;BME280;18807;52.434;13.238;2023-08-07T11:59:37;74592.31;;;-142.05;87.97
32330;BME280;18807;52.434;13.238;2023-08-07T12:07:17;74590.28;;;-142.05;100.00
32330;BME280;18807;52.434;13.238;2023-08-07T12:14:52;74563.75;;;-142.05;100.00
32330;BME280;18807;52.434;13.238;2023-08-07T12:22:29;74537.22;;;-142.05;81.84
32330;BME280;18807;52.434;13.238;2023-08-07T12:30:04;74535.19;;;-142.05;75.82
32330;BME280;18807;52.434;13.238;2023-08-07T12:37:40;74527.03;;;-142.05;76.24
32330;BME280;18807;52.434;13.238;2023-08-07T12:45:15;74502.56;;;-142.05;69.33
32330;BME280;18807;52.434;13.238;2023-08-07T12:53:11;74527.03;;;-142.05;64.27
32330;BME280;18807;52.434;13.238;2023-08-07T13:00:46;74698.41;;;-142.05;96.82
32330;BME280;18807;52.434;13.238;2023-08-07T13:08:22;74686.16;;;-142.05;100.00
32330;BME280;18807;52.434;13.238;2023-08-07T13:15:58;74708.59;;;-142.05;100.00
32330;BME280;18807;52.434;13.238;2023-08-07T13:23:34;74698.41;;;-142.05;100.00
32330;BME280;18807;52.434;13.238;2023-08-07T13:31:11;74726.97;;;-142.05;100.00
32330;BME280;18807;52.434;13.238;2023-08-07T13:38:47;74735.13;;;-142.05;100.00
32330;BME280;18807;52.434;13.238;2023-08-07T13:46:21;74739.19;;;-142.05;100.00
32330;BME280;18807;52.434;13.238;2023-08-07T13:53:57;74739.19;;;-142.05;86.19
32330;BME280;18807;52.434;13.238;2023-08-07T14:01:31;74694.31;;;-142.05;78.78
32330;BME280;18807;52.434;13.238;2023-08-07T14:09:09;74706.56;;;-142.05;67.00
32330;BME280;18807;52.434;13.238;2023-08-07T14:16:44;74704.50;;;-142.05;63.63
32330;BME280;18807;52.434;13.238;2023-08-07T14:24:20;74726.97;;;-142.05;61.54
32330;BME280;18807;52.434;13.238;2023-08-07T14:31:57;74753.47;;;-142.05;62.23
32330;BME280;18807;52.434;13.238;2023-08-07T14:39:33;74745.31;;;-142.05;57.06
32330;BME280;18807;52.434;13.238;2023-08-07T14:47:07;74671.88;;;-142.05;58.46
32330;BME280;18807;52.434;13.238;2023-08-07T14:54:44;74629.03;;;-142.05;53.26
32330;BME280;18807;52.434;13.238;2023-08-07T15:02:18;74641.28;;;-142.05;52.48
32330;BME280;18807;52.434;13.238;2023-08-07T15:09:54;74653.50;;;-142.05;51.14
32330;BME280;18807;52.434;13.238;2023-08-07T15:17:28;74671.88;;;-142.05;50.08
32330;BME280;18807;52.434;13.238;2023-08-07T15:25:06;74694.31;;;-142.05;50.95
32330;BME280;18807;52.434;13.238;2023-08-07T15:32:41;74700.44;;;-142.05;53.49
32330;BME280;18807;52.434;13.238;2023-08-07T15:40:17;74635.16;;;-142.05;52.03
32330;BME280;18807;52.434;13.238;2023-08-07T15:47:53;74653.50;;;-142.05;50.64
32330;BME280;18807;52.434;13.238;2023-08-07T15:55:30;74655.56;;;-142.05;50.02
32330;BME280;18807;52.434;13.238;2023-08-07T16:03:08;74645.34;;;-142.05;50.06
32330;BME280;18807;52.434;13.238;2023-08-07T16:10:44;74657.59;;;-142.05;47.68
32330;BME280;18807;52.434;13.238;2023-08-07T16:18:18;74612.72;;;-142.05;47.35
32330;BME280;18807;52.434;13.238;2023-08-07T16:25:54;74582.13;;;-142.05;45.55
32330;BME280;18807;52.434;13.238;2023-08-07T16:33:29;74651.47;;;-142.05;46.11
32330;BME280;18807;52.434;13.238;2023-08-07T16:41:05;74696.34;;;-142.05;47.51
32330;BME280;18807;52.434;13.238;2023-08-07T16:48:39;74708.59;;;-142.05;47.59
32330;BME280;18807;52.434;13.238;2023-08-07T16:56:15;74724.91;;;-142.05;46.84
32330;BME280;18807;52.434;13.238;2023-08-07T17:03:50;74749.41;;;-142.05;47.76
32330;BME280;18807;52.434;13.238;2023-08-07T17:11:27;74767.75;;;-142.05;48.69
32330;BME280;18807;52.434;13.238;2023-08-07T17:19:03;74784.09;;;-142.05;49.88
32330;BME280;18807;52.434;13.238;2023-08-07T17:26:39;74804.47;;;-142.05;50.08
32330;BME280;18807;52.434;13.238;2023-08-07T17:34:14;74835.09;;;-142.05;51.79
32330;BME280;18807;52.434;13.238;2023-08-07T17:41:49;74863.66;;;-142.05;50.32
32330;BME280;18807;52.434;13.238;2023-08-07T17:49:23;74886.09;;;-142.05;49.23
32330;BME280;18807;52.434;13.238;2023-08-07T17:57:02;74914.66;;;-142.05;48.64
32330;BME280;18807;52.434;13.238;2023-08-07T18:04:38;74926.91;;;-142.05;49.19
32330;BME280;18807;52.434;13.238;2023-08-07T18:12:16;74945.25;;;-142.05;50.00
32330;BME280;18807;52.434;13.238;2023-08-07T18:19:51;74979.94;;;-142.05;49.59
32330;BME280;18807;52.434;13.238;2023-08-07T18:27:27;74992.19;;;-142.05;50.63
32330;BME280;18807;52.434;13.238;2023-08-07T18:35:01;75012.59;;;-142.05;51.62
32330;BME280;18807;52.434;13.238;2023-08-07T18:42:38;75020.75;;;-142.05;51.86
32330;BME280;18807;52.434;13.238;2023-08-07T18:50:13;75033.00;;;-142.05;52.72
32330;BME280;18807;52.434;13.238;2023-08-07T18:57:49;75053.41;;;-142.05;53.58
32330;BME280;18807;52.434;13.238;2023-08-07T19:05:25;75081.97;;;-142.05;54.51
32330;BME280;18807;52.434;13.238;2023-08-07T19:13:00;75100.31;;;-142.05;54.68
32330;BME280;18807;52.434;13.238;2023-08-07T19:20:35;75100.31;;;-142.05;54.33
32330;BME280;18807;52.434;13.238;2023-08-07T19:28:10;75145.22;;;-142.05;58.10
32330;BME280;18807;52.434;13.238;2023-08-07T19:35:46;75173.78;;;-142.05;59.17
32330;BME280;18807;52.434;13.238;2023-08-07T19:43:22;75183.97;;;-142.05;59.73
32330;BME280;18807;52.434;13.238;2023-08-07T19:50:56;75188.06;;;-142.05;59.82
32330;BME280;18807;52.434;13.238;2023-08-07T19:58:32;75204.38;;;-142.05;60.29
32330;BME280;18807;52.434;13.238;2023-08-07T20:06:07;75224.78;;;-142.05;60.29
32330;BME280;18807;52.434;13.238;2023-08-07T20:13:43;75232.94;;;-142.05;60.22
32330;BME280;18807;52.434;13.238;2023-08-07T20:21:19;75239.06;;;-142.05;60.99
32330;BME280;18807;52.434;13.238;2023-08-07T20:28:54;75245.19;;;-142.05;59.68
32330;BME280;18807;52.434;13.238;2023-08-07T20:36:30;75263.56;;;-142.05;58.15
32330;BME280;18807;52.434;13.238;2023-08-07T20:44:07;75267.63;;;-142.05;57.79
32330;BME280;18807;52.434;13.238;2023-08-07T20:51:41;75286.00;;;-142.05;58.47
32330;BME280;18807;52.434;13.238;2023-08-07T20:59:17;75292.13;;;-142.05;59.25
32330;BME280;18807;52.434;13.238;2023-08-07T21:06:51;75302.31;;;-142.05;60.68
32330;BME280;18807;52.434;13.238;2023-08-07T21:14:28;75294.16;;;-142.05;61.62
32330;BME280;18807;52.434;13.238;2023-08-07T21:22:05;75300.28;;;-142.05;62.95
32330;BME280;18807;52.434;13.238;2023-08-07T21:29:41;75312.53;;;-142.05;63.89
32330;BME280;18807;52.434;13.238;2023-08-07T21:37:15;75330.88;;;-142.05;64.25
32330;BME280;18807;52.434;13.238;2023-08-07T21:44:53;75334.97;;;-142.05;65.52
32330;BME280;18807;52.434;13.238;2023-08-07T21:52:28;75343.13;;;-142.05;67.34
32330;BME280;18807;52.434;13.238;2023-08-07T22:00:06;75341.09;;;-142.05;68.08
32330;BME280;18807;52.434;13.238;2023-08-07T22:07:46;75355.38;;;-142.05;69.40
32330;BME280;18807;52.434;13.238;2023-08-07T22:15:22;75355.38;;;-142.05;70.08
32330;BME280;18807;52.434;13.238;2023-08-07T22:22:57;75373.75;;;-142.05;70.63
32330;BME280;18807;52.434;13.238;2023-08-07T22:30:33;75385.97;;;-142.05;71.51
32330;BME280;18807;52.434;13.238;2023-08-07T22:38:07;75396.19;;;-142.05;72.29
32330;BME280;18807;52.434;13.238;2023-08-07T22:45:47;75408.44;;;-142.05;72.52
32330;BME280;18807;52.434;13.238;2023-08-07T22:53:25;75424.75;;;-142.05;72.41
32330;BME280;18807;52.434;13.238;2023-08-07T23:01:00;75426.78;;;-142.05;72.60
32330;BME280;18807;52.434;13.238;2023-08-07T23:08:35;75437.00;;;-142.05;72.20
32330;BME280;18807;52.434;13.238;2023-08-07T23:16:11;75447.19;;;-142.05;71.79
32330;BME280;18807;52.434;13.238;2023-08-07T23:23:45;75445.16;;;-142.05;70.21
32330;BME280;18807;52.434;13.238;2023-08-07T23:31:22;75428.84;;;-142.05;69.27
32330;BME280;18807;52.434;13.238;2023-08-07T23:38:57;75449.25;;;-142.05;69.24
32330;BME280;18807;52.434;13.238;2023-08-07T23:46:32;75449.25;;;-142.05;70.23
32330;BME280;18807;52.434;13.238;2023-08-07T23:54:07;75455.38;;;-142.05;71.02
